sensor_id;sensor_type;location;lat;lon;timestamp;temperature;humidity
21928;DHT22;11128;51.096;17.190;2022-09-03T00:09:59;13.60;1.00
21928;DHT22;11128;51.096;17.190;2022-09-03T00:15:19;13.60;1.00
21928;DHT22;11128;51.096;17.190;2022-09-03T00:20:41;13.50;1.00
21928;DHT22;11128;51.096;17.190;2022-09-03T00:26:07;13.50;99.90
21928;DHT22;11128;51.096;17.190;2022-09-03T00:31:16;13.30;99.90
21928;DHT22;11128;51.096;17.190;2022-09-03T00:36:22;13.20;99.90
21928;DHT22;11128;51.096;17.190;2022-09-03T00:46:52;12.90;1.00
21928;DHT22;11128;51.096;17.190;2022-09-03T01:23:33;12.30;1.00
21928;DHT22;11128;51.096;17.190;2022-09-03T01:28:51;12.20;99.90
21928;DHT22;11128;51.096;17.190;2022-09-03T01:34:18;12.20;1.00
21928;DHT22;11128;51.096;17.190;2022-09-03T01:39:39;12.10;99.90
21928;DHT22;11128;51.096;17.190;2022-09-03T01:45:06;12.00;99.90
21928;DHT22;11128;51.096;17.190;2022-09-03T02:01:09;11.70;1.00
21928;DHT22;11128;51.096;17.190;2022-09-03T02:06:12;11.70;1.00
21928;DHT22;11128;51.096;17.190;2022-09-03T02:11:13;11.70;84.30
21928;DHT22;11128;51.096;17.190;2022-09-03T02:16:17;11.60;1.00
21928;DHT22;11128;51.096;17.190;2022-09-03T02:21:22;11.60;99.90
21928;DHT22;11128;51.096;17.190;2022-09-03T02:26:24;11.60;99.90
21928;DHT22;11128;51.096;17.190;2022-09-03T02:31:26;11.50;99.90
21928;DHT22;11128;51.096;17.190;2022-09-03T02:36:36;11.40;99.90
21928;DHT22;11128;51.096;17.190;2022-09-03T02:41:39;11.30;1.00
21928;DHT22;11128;51.096;17.190;2022-09-03T02:46:44;11.10;5.00
21928;DHT22;11128;51.096;17.190;2022-09-03T02:51:47;11.10;1.00
21928;DHT22;11128;51.096;17.190;2022-09-03T02:56:51;11.00;1.00
21928;DHT22;11128;51.096;17.190;2022-09-03T03:01:53;11.00;99.90
21928;DHT22;11128;51.096;17.190;2022-09-03T03:06:54;10.90;1.00
21928;DHT22;11128;51.096;17.190;2022-09-03T03:11:56;10.80;1.00
21928;DHT22;11128;51.096;17.190;2022-09-03T03:16:57;10.80;99.90
21928;DHT22;11128;51.096;17.190;2022-09-03T03:21:59;10.80;9.50
21928;DHT22;11128;51.096;17.190;2022-09-03T03:27:00;10.60;1.00
21928;DHT22;11128;51.096;17.190;2022-09-03T03:32:06;10.60;99.90
21928;DHT22;11128;51.096;17.190;2022-09-03T03:37:07;10.50;47.40
21928;DHT22;11128;51.096;17.190;2022-09-03T03:42:09;10.50;1.00
21928;DHT22;11128;51.096;17.190;2022-09-03T03:47:12;10.40;99.90
21928;DHT22;11128;51.096;17.190;2022-09-03T03:52:13;10.30;99.90
21928;DHT22;11128;51.096;17.190;2022-09-03T03:57:15;10.30;1.00
21928;DHT22;11128;51.096;17.190;2022-09-03T04:02:17;10.30;1.00
21928;DHT22;11128;51.096;17.190;2022-09-03T04:07:19;10.20;1.00
21928;DHT22;11128;51.096;17.190;2022-09-03T04:12:20;10.20;99.90
21928;DHT22;11128;51.096;17.190;2022-09-03T04:17:21;10.10;99.90
21928;DHT22;11128;51.096;17.190;2022-09-03T04:22:23;10.00;92.10
21928;DHT22;11128;51.096;17.190;2022-09-03T04:27:25;10.00;1.00
21928;DHT22;11128;51.096;17.190;2022-09-03T04:32:26;9.90;1.00
21928;DHT22;11128;51.096;17.190;2022-09-03T04:37:47;10.00;1.00
21928;DHT22;11128;51.096;17.190;2022-09-03T04:42:48;9.90;99.90
21928;DHT22;11128;51.096;17.190;2022-09-03T04:53:03;9.90;99.90
21928;DHT22;11128;51.096;17.190;2022-09-03T04:58:05;10.00;99.90
21928;DHT22;11128;51.096;17.190;2022-09-03T05:03:10;10.10;1.00
21928;DHT22;11128;51.096;17.190;2022-09-03T05:08:11;10.10;1.00
21928;DHT22;11128;51.096;17.190;2022-09-03T05:13:13;10.30;99.90
21928;DHT22;11128;51.096;17.190;2022-09-03T05:18:14;10.30;32.80
21928;DHT22;11128;51.096;17.190;2022-09-03T05:23:16;10.40;1.00
21928;DHT22;11128;51.096;17.190;2022-09-03T05:28:19;10.50;1.00
21928;DHT22;11128;51.096;17.190;2022-09-03T05:33:21;10.70;1.00
21928;DHT22;11128;51.096;17.190;2022-09-03T05:38:24;10.90;99.90
21928;DHT22;11128;51.096;17.190;2022-09-03T05:43:26;11.10;1.00
21928;DHT22;11128;51.096;17.190;2022-09-03T05:48:29;11.20;96.00
21928;DHT22;11128;51.096;17.190;2022-09-03T05:57:27;11.40;1.00
21928;DHT22;11128;51.096;17.190;2022-09-03T06:02:29;11.60;99.90
21928;DHT22;11128;51.096;17.190;2022-09-03T06:07:32;11.70;1.00
21928;DHT22;11128;51.096;17.190;2022-09-03T06:12:34;11.90;1.00
21928;DHT22;11128;51.096;17.190;2022-09-03T06:17:39;12.10;99.90
21928;DHT22;11128;51.096;17.190;2022-09-03T06:22:40;12.20;1.00
21928;DHT22;11128;51.096;17.190;2022-09-03T06:27:42;12.50;1.00
21928;DHT22;11128;51.096;17.190;2022-09-03T06:32:46;12.80;1.00
21928;DHT22;11128;51.096;17.190;2022-09-03T06:37:48;13.10;1.00
21928;DHT22;11128;51.096;17.190;2022-09-03T06:42:56;13.40;99.90
21928;DHT22;11128;51.096;17.190;2022-09-03T06:48:02;13.80;1.00
21928;DHT22;11128;51.096;17.190;2022-09-03T06:53:04;14.10;1.00
21928;DHT22;11128;51.096;17.190;2022-09-03T06:58:06;14.40;1.00
21928;DHT22;11128;51.096;17.190;2022-09-03T07:03:09;14.80;1.00
21928;DHT22;11128;51.096;17.190;2022-09-03T07:08:10;15.10;1.00
21928;DHT22;11128;51.096;17.190;2022-09-03T07:13:12;15.50;99.90
21928;DHT22;11128;51.096;17.190;2022-09-03T07:18:14;15.80;99.90
21928;DHT22;11128;51.096;17.190;2022-09-03T07:23:16;16.20;99.90
21928;DHT22;11128;51.096;17.190;2022-09-03T07:28:18;16.60;99.90
21928;DHT22;11128;51.096;17.190;2022-09-03T07:33:20;16.80;99.90
21928;DHT22;11128;51.096;17.190;2022-09-03T07:38:23;17.20;99.90
21928;DHT22;11128;51.096;17.190;2022-09-03T07:43:29;17.70;99.90
21928;DHT22;11128;51.096;17.190;2022-09-03T07:48:33;18.00;99.90
21928;DHT22;11128;51.096;17.190;2022-09-03T07:53:35;18.40;99.90
21928;DHT22;11128;51.096;17.190;2022-09-03T07:58:38;18.80;71.30
21928;DHT22;11128;51.096;17.190;2022-09-03T08:03:45;19.10;57.50
21928;DHT22;11128;51.096;17.190;2022-09-03T08:08:47;19.60;31.90
21928;DHT22;11128;51.096;17.190;2022-09-03T08:14:09;20.20;45.30
21928;DHT22;11128;51.096;17.190;2022-09-03T08:19:12;20.60;16.40
21928;DHT22;11128;51.096;17.190;2022-09-03T08:24:16;20.90;1.00
21928;DHT22;11128;51.096;17.190;2022-09-03T08:29:21;21.40;1.00
21928;DHT22;11128;51.096;17.190;2022-09-03T08:34:22;21.40;1.00
21928;DHT22;11128;51.096;17.190;2022-09-03T08:39:27;21.80;1.00
21928;DHT22;11128;51.096;17.190;2022-09-03T08:44:45;22.40;1.00
21928;DHT22;11128;51.096;17.190;2022-09-03T09:05:55;23.90;1.00
21928;DHT22;11128;51.096;17.190;2022-09-03T09:16:22;25.00;1.00
21928;DHT22;11128;51.096;17.190;2022-09-03T09:21:35;25.60;1.00
21928;DHT22;11128;51.096;17.190;2022-09-03T09:26:40;25.90;1.00
21928;DHT22;11128;51.096;17.190;2022-09-03T09:31:42;25.20;1.00
21928;DHT22;11128;51.096;17.190;2022-09-03T09:42:11;26.50;1.00
21928;DHT22;11128;51.096;17.190;2022-09-03T09:47:25;26.90;1.00
21928;DHT22;11128;51.096;17.190;2022-09-03T09:52:28;27.10;1.00
21928;DHT22;11128;51.096;17.190;2022-09-03T09:57:31;27.70;1.00
21928;DHT22;11128;51.096;17.190;2022-09-03T10:02:35;27.90;1.00
21928;DHT22;11128;51.096;17.190;2022-09-03T10:07:38;26.90;1.00
21928;DHT22;11128;51.096;17.190;2022-09-03T10:18:03;27.50;1.00
21928;DHT22;11128;51.096;17.190;2022-09-03T10:23:15;27.30;1.00
21928;DHT22;11128;51.096;17.190;2022-09-03T10:28:23;27.20;1.00
21928;DHT22;11128;51.096;17.190;2022-09-03T10:33:30;27.40;1.00
21928;DHT22;11128;51.096;17.190;2022-09-03T10:38:34;28.40;1.00
21928;DHT22;11128;51.096;17.190;2022-09-03T10:59:55;27.40;1.00
21928;DHT22;11128;51.096;17.190;2022-09-03T11:05:11;27.90;1.00
21928;DHT22;11128;51.096;17.190;2022-09-03T11:15:27;28.70;1.00
21928;DHT22;11128;51.096;17.190;2022-09-03T11:20:31;28.80;1.00
21928;DHT22;11128;51.096;17.190;2022-09-03T11:26:09;28.30;1.00
21928;DHT22;11128;51.096;17.190;2022-09-03T11:31:23;27.60;1.00
21928;DHT22;11128;51.096;17.190;2022-09-03T11:36:34;27.00;1.00
21928;DHT22;11128;51.096;17.190;2022-09-03T11:41:37;27.80;1.00
21928;DHT22;11128;51.096;17.190;2022-09-03T11:46:39;27.40;1.00
21928;DHT22;11128;51.096;17.190;2022-09-03T11:51:41;26.60;1.00
21928;DHT22;11128;51.096;17.190;2022-09-03T11:56:45;27.10;1.00
21928;DHT22;11128;51.096;17.190;2022-09-03T12:01:57;27.90;1.00
21928;DHT22;11128;51.096;17.190;2022-09-03T12:22:25;28.60;1.00
21928;DHT22;11128;51.096;17.190;2022-09-03T12:27:32;28.70;1.00
21928;DHT22;11128;51.096;17.190;2022-09-03T12:32:36;30.10;1.00
21928;DHT22;11128;51.096;17.190;2022-09-03T12:37:38;30.60;1.00
21928;DHT22;11128;51.096;17.190;2022-09-03T12:42:42;30.00;1.00
21928;DHT22;11128;51.096;17.190;2022-09-03T12:47:44;29.10;1.00
21928;DHT22;11128;51.096;17.190;2022-09-03T12:52:53;29.80;1.00
21928;DHT22;11128;51.096;17.190;2022-09-03T13:03:38;29.00;1.00
21928;DHT22;11128;51.096;17.190;2022-09-03T13:08:49;27.30;1.00
21928;DHT22;11128;51.096;17.190;2022-09-03T13:30:03;23.70;1.00
21928;DHT22;11128;51.096;17.190;2022-09-03T13:35:11;23.40;1.00
21928;DHT22;11128;51.096;17.190;2022-09-03T13:40:27;23.30;1.00
21928;DHT22;11128;51.096;17.190;2022-09-03T13:45:40;23.30;1.00
21928;DHT22;11128;51.096;17.190;2022-09-03T13:51:10;24.70;1.00
21928;DHT22;11128;51.096;17.190;2022-09-03T13:56:43;25.00;1.00
21928;DHT22;11128;51.096;17.190;2022-09-03T14:02:10;24.70;1.00
21928;DHT22;11128;51.096;17.190;2022-09-03T14:07:20;23.80;1.00
21928;DHT22;11128;51.096;17.190;2022-09-03T14:12:43;23.00;1.00
21928;DHT22;11128;51.096;17.190;2022-09-03T14:17:58;22.70;1.00
21928;DHT22;11128;51.096;17.190;2022-09-03T14:23:43;22.90;1.00
21928;DHT22;11128;51.096;17.190;2022-09-03T14:28:58;23.80;1.00
21928;DHT22;11128;51.096;17.190;2022-09-03T14:39:11;24.00;1.00
21928;DHT22;11128;51.096;17.190;2022-09-03T15:01:32;22.90;1.00
21928;DHT22;11128;51.096;17.190;2022-09-03T15:12:07;22.30;1.00
21928;DHT22;11128;51.096;17.190;2022-09-03T15:33:39;21.20;1.00
21928;DHT22;11128;51.096;17.190;2022-09-03T15:44:02;21.30;1.00
21928;DHT22;11128;51.096;17.190;2022-09-03T15:49:24;21.60;1.00
21928;DHT22;11128;51.096;17.190;2022-09-03T16:00:02;21.80;1.00
21928;DHT22;11128;51.096;17.190;2022-09-03T16:05:17;21.60;1.00
21928;DHT22;11128;51.096;17.190;2022-09-03T16:10:19;21.00;1.00
21928;DHT22;11128;51.096;17.190;2022-09-03T16:15:29;20.70;1.00
21928;DHT22;11128;51.096;17.190;2022-09-03T16:20:41;20.50;1.00
21928;DHT22;11128;51.096;17.190;2022-09-03T16:25:54;20.40;1.00
21928;DHT22;11128;51.096;17.190;2022-09-03T16:31:11;20.30;1.00
21928;DHT22;11128;51.096;17.190;2022-09-03T16:36:44;20.20;1.00
21928;DHT22;11128;51.096;17.190;2022-09-03T16:42:11;20.30;1.00
21928;DHT22;11128;51.096;17.190;2022-09-03T16:53:14;20.10;1.00
21928;DHT22;11128;51.096;17.190;2022-09-03T16:58:56;19.90;1.00
21928;DHT22;11128;51.096;17.190;2022-09-03T17:31:22;19.00;50.20
21928;DHT22;11128;51.096;17.190;2022-09-03T17:36:26;18.80;99.90
21928;DHT22;11128;51.096;17.190;2022-09-03T17:52:05;18.20;1.00
21928;DHT22;11128;51.096;17.190;2022-09-03T17:57:26;18.00;1.00
21928;DHT22;11128;51.096;17.190;2022-09-03T18:02:42;17.80;1.00
21928;DHT22;11128;51.096;17.190;2022-09-03T18:07:51;17.60;1.00
21928;DHT22;11128;51.096;17.190;2022-09-03T18:18:31;17.30;99.90
21928;DHT22;11128;51.096;17.190;2022-09-03T18:23:51;17.10;99.90
21928;DHT22;11128;51.096;17.190;2022-09-03T18:34:52;16.80;1.00
21928;DHT22;11128;51.096;17.190;2022-09-03T18:40:20;16.60;1.00
21928;DHT22;11128;51.096;17.190;2022-09-03T18:57:34;16.10;99.90
21928;DHT22;11128;51.096;17.190;2022-09-03T19:14:58;15.70;1.00
21928;DHT22;11128;51.096;17.190;2022-09-03T19:20:27;15.60;11.10
21928;DHT22;11128;51.096;17.190;2022-09-03T19:25:50;15.50;99.90
21928;DHT22;11128;51.096;17.190;2022-09-03T19:36:55;15.30;1.00
21928;DHT22;11128;51.096;17.190;2022-09-03T19:42:32;15.30;1.00
21928;DHT22;11128;51.096;17.190;2022-09-03T19:53:33;15.00;1.00
21928;DHT22;11128;51.096;17.190;2022-09-03T19:59:04;14.90;99.90
21928;DHT22;11128;51.096;17.190;2022-09-03T20:04:31;14.90;99.90
21928;DHT22;11128;51.096;17.190;2022-09-03T20:09:53;14.80;1.00
21928;DHT22;11128;51.096;17.190;2022-09-03T20:15:15;14.80;1.00
21928;DHT22;11128;51.096;17.190;2022-09-03T20:31:00;14.40;1.00
21928;DHT22;11128;51.096;17.190;2022-09-03T20:36:29;14.40;29.00
21928;DHT22;11128;51.096;17.190;2022-09-03T20:52:40;14.20;1.00
21928;DHT22;11128;51.096;17.190;2022-09-03T21:13:48;13.90;99.90
21928;DHT22;11128;51.096;17.190;2022-09-03T21:19:07;13.90;99.90
21928;DHT22;11128;51.096;17.190;2022-09-03T21:24:50;13.70;1.00
21928;DHT22;11128;51.096;17.190;2022-09-03T21:29:48;13.70;99.90
21928;DHT22;11128;51.096;17.190;2022-09-03T21:40:08;13.60;28.00
21928;DHT22;11128;51.096;17.190;2022-09-03T21:45:49;13.40;1.00
21928;DHT22;11128;51.096;17.190;2022-09-03T21:50:55;13.40;1.00
21928;DHT22;11128;51.096;17.190;2022-09-03T22:01:41;13.10;99.90
21928;DHT22;11128;51.096;17.190;2022-09-03T22:06:53;13.10;99.90
21928;DHT22;11128;51.096;17.190;2022-09-03T22:12:05;13.10;1.00
21928;DHT22;11128;51.096;17.190;2022-09-03T22:17:16;13.10;99.90
21928;DHT22;11128;51.096;17.190;2022-09-03T22:27:49;13.00;1.00
21928;DHT22;11128;51.096;17.190;2022-09-03T22:33:13;12.90;99.90
21928;DHT22;11128;51.096;17.190;2022-09-03T22:38:36;12.90;99.90
21928;DHT22;11128;51.096;17.190;2022-09-03T22:43:43;12.80;1.00
21928;DHT22;11128;51.096;17.190;2022-09-03T22:54:04;12.70;1.00
21928;DHT22;11128;51.096;17.190;2022-09-03T23:09:40;12.60;1.00
21928;DHT22;11128;51.096;17.190;2022-09-03T23:14:47;12.50;1.00
21928;DHT22;11128;51.096;17.190;2022-09-03T23:20:29;12.50;1.00
21928;DHT22;11128;51.096;17.190;2022-09-03T23:25:39;12.50;1.00
21928;DHT22;11128;51.096;17.190;2022-09-03T23:30:42;12.50;99.90
21928;DHT22;11128;51.096;17.190;2022-09-03T23:36:01;12.40;99.90
21928;DHT22;11128;51.096;17.190;2022-09-03T23:41:10;12.40;1.00
21928;DHT22;11128;51.096;17.190;2022-09-03T23:46:22;12.30;99.90
21928;DHT22;11128;51.096;17.190;2022-09-03T23:57:04;12.30;1.00
